PWSweather.com
Personal Weather Stations
Station Observations
KMNGREYC2
Grey Cloud Island, Grey Cloud Island, MN 55071

Grey Cloud IslandGrey Cloud Island, MN 55071

Lat: 44.799333, Lon: -92.987851

Elevation: 700

Station Type: Davis VP2

www.jagielski.com/weather/conditions.htm

High Low Average
Temperature 38.8°F3.8°C 33.9°F1.1°C 36.5°F2.5°C
Dew Point 38.3°F3.5°C 33.1°F0.6°C 35.7°F2.1°C
Winds 4.0 mph 6.4 kmh Calm Calm Calm SSWCalm SSW
Wind Gusts 7.0 mph11.3 kmh -- 2.0 mph3.2 kmh
Humidity 98% 96% 97%
Pressure 29.66 in1004.4 mb 29.57 in1001.4 mb -
Precipitation 0.00 in0.0 mm - -
Hour Temp Dew Point Humidity Winds Wind Gusts Pressure Precip Precip Rate Daily Precip Total
12:00 AM 37.1°F2.8°C 36.3°F2.4°C 97% Calm Calm 3.0 mph4.8 kmh 29.61 in1002.7 mb 0.03 in0.8 mm 0.00 in0.0 mm 0.03 in0.8 mm
12:15 AM 37.1°F2.8°C 36.3°F2.4°C 97% Calm Calm 2.0 mph3.2 kmh 29.61 in1002.7 mb 0.02 in0.5 mm 0.00 in0.0 mm 0.03 in0.8 mm
12:30 AM 37.0°F2.8°C 36.0°F2.2°C 96% Calm Calm 2.0 mph3.2 kmh 29.60 in1002.4 mb 0.03 in0.8 mm 0.04 in1.0 mm 0.04 in1.0 mm
12:45 AM 36.8°F2.7°C 35.8°F2.1°C 96% Calm Calm 1.0 mph1.6 kmh 29.60 in1002.4 mb 0.02 in0.5 mm 0.00 in0.0 mm 0.04 in1.0 mm
01:00 AM 36.4°F2.4°C 35.6°F2.0°C 97% Calm Calm 1.0 mph1.6 kmh 29.60 in1002.4 mb 0.02 in0.5 mm 0.00 in0.0 mm 0.04 in1.0 mm
01:15 AM 36.0°F2.2°C 35.0°F1.7°C 96% Calm Calm -- 29.60 in1002.4 mb 0.01 in0.3 mm 0.00 in0.0 mm 0.04 in1.0 mm
01:30 AM 35.8°F2.1°C 34.8°F1.6°C 96% Calm Calm 1.0 mph1.6 kmh 29.59 in1002.0 mb 0.02 in0.5 mm 0.04 in1.0 mm 0.05 in1.3 mm
01:45 AM 35.6°F2.0°C 34.6°F1.4°C 96% Calm Calm 1.0 mph1.6 kmh 29.59 in1002.0 mb 0.01 in0.3 mm 0.00 in0.0 mm 0.05 in1.3 mm
02:00 AM 35.3°F1.8°C 34.5°F1.4°C 97% Calm Calm 1.0 mph1.6 kmh 29.58 in1001.7 mb 0.01 in0.3 mm 0.00 in0.0 mm 0.05 in1.3 mm
02:15 AM 35.3°F1.8°C 34.5°F1.4°C 97% Calm Calm -- 29.59 in1002.0 mb 0.01 in0.3 mm 0.00 in0.0 mm 0.05 in1.3 mm
02:30 AM 35.4°F1.9°C 34.6°F1.4°C 97% Calm Calm 2.0 mph3.2 kmh 29.59 in1002.0 mb 0.01 in0.3 mm 0.00 in0.0 mm 0.05 in1.3 mm
02:45 AM 36.0°F2.2°C 35.2°F1.8°C 97% Calm Calm 2.0 mph3.2 kmh 29.59 in1002.0 mb 0.01 in0.3 mm 0.00 in0.0 mm 0.05 in1.3 mm
03:00 AM 36.6°F2.6°C 35.8°F2.1°C 97% 4.0 mph SW6.4 kmh SW 4.0 mph6.4 kmh 29.59 in1002.0 mb 0.01 in0.3 mm 0.00 in0.0 mm 0.05 in1.3 mm
03:15 AM 37.1°F2.8°C 36.3°F2.4°C 97% Calm Calm 4.0 mph6.4 kmh 29.58 in1001.7 mb 0.01 in0.3 mm 0.00 in0.0 mm 0.05 in1.3 mm
03:30 AM 37.3°F2.9°C 36.5°F2.5°C 97% Calm Calm 4.0 mph6.4 kmh 29.58 in1001.7 mb 0.02 in0.5 mm 0.04 in1.0 mm 0.06 in1.5 mm
03:45 AM 37.0°F2.8°C 36.2°F2.3°C 97% Calm Calm 2.0 mph3.2 kmh 29.58 in1001.7 mb 0.01 in0.3 mm 0.00 in0.0 mm 0.06 in1.5 mm
04:00 AM 36.8°F2.7°C 36.0°F2.2°C 97% 1.0 mph SW1.6 kmh SW 6.0 mph9.7 kmh 29.57 in1001.4 mb 0.01 in0.3 mm 0.00 in0.0 mm 0.06 in1.5 mm
04:15 AM 37.4°F3.0°C 36.6°F2.6°C 97% Calm Calm 7.0 mph11.3 kmh 29.57 in1001.4 mb 0.02 in0.5 mm 0.04 in1.0 mm 0.07 in1.8 mm
04:30 AM 37.8°F3.2°C 37.0°F2.8°C 97% Calm Calm 7.0 mph11.3 kmh 29.57 in1001.4 mb 0.02 in0.5 mm 0.00 in0.0 mm 0.07 in1.8 mm
04:45 AM 38.0°F3.3°C 37.2°F2.9°C 97% 1.0 mph SW1.6 kmh SW 6.0 mph9.7 kmh 29.57 in1001.4 mb 0.01 in0.3 mm 0.00 in0.0 mm 0.07 in1.8 mm
05:00 AM 38.4°F3.6°C 37.6°F3.1°C 97% 1.0 mph S1.6 kmh S 6.0 mph9.7 kmh 29.58 in1001.7 mb 0.02 in0.5 mm 0.01 in0.3 mm 0.08 in2.0 mm
05:15 AM 38.6°F3.7°C 37.8°F3.2°C 97% Calm Calm 2.0 mph3.2 kmh 29.59 in1002.0 mb 0.02 in0.5 mm 0.00 in0.0 mm 0.08 in2.0 mm
05:30 AM 38.1°F3.4°C 37.3°F2.9°C 97% Calm Calm 2.0 mph3.2 kmh 29.59 in1002.0 mb 0.02 in0.5 mm 0.00 in0.0 mm 0.08 in2.0 mm
05:45 AM 37.5°F3.1°C 36.7°F2.6°C 97% Calm Calm 4.0 mph6.4 kmh 29.59 in1002.0 mb 0.02 in0.5 mm 0.00 in0.0 mm 0.08 in2.0 mm
06:00 AM 37.1°F2.8°C 36.3°F2.4°C 97% Calm Calm 4.0 mph6.4 kmh 29.59 in1002.0 mb 0.02 in0.5 mm 0.00 in0.0 mm 0.08 in2.0 mm
06:15 AM 36.7°F2.6°C 35.9°F2.2°C 97% Calm Calm 2.0 mph3.2 kmh 29.60 in1002.4 mb 0.01 in0.3 mm 0.00 in0.0 mm 0.08 in2.0 mm
06:30 AM 36.2°F2.3°C 35.4°F1.9°C 97% Calm Calm 2.0 mph3.2 kmh 29.60 in1002.4 mb 0.01 in0.3 mm 0.00 in0.0 mm 0.08 in2.0 mm
06:45 AM 35.9°F2.2°C 35.1°F1.7°C 97% Calm Calm -- 29.59 in1002.0 mb 0.01 in0.3 mm 0.00 in0.0 mm 0.08 in2.0 mm
07:00 AM 35.7°F2.1°C 34.9°F1.6°C 97% Calm Calm -- 29.60 in1002.4 mb 0.01 in0.3 mm 0.00 in0.0 mm 0.08 in2.0 mm
07:15 AM 35.5°F1.9°C 34.7°F1.5°C 97% Calm Calm -- 29.60 in1002.4 mb 0.00 in0.0 mm 0.00 in0.0 mm 0.08 in2.0 mm
07:30 AM 35.3°F1.8°C 34.5°F1.4°C 97% Calm Calm -- 29.60 in1002.4 mb 0.01 in0.3 mm 0.04 in1.0 mm 0.09 in2.3 mm
07:45 AM 35.1°F1.7°C 34.3°F1.3°C 97% Calm Calm -- 29.60 in1002.4 mb 0.01 in0.3 mm 0.00 in0.0 mm 0.09 in2.3 mm
08:00 AM 34.9°F1.6°C 34.1°F1.2°C 97% Calm Calm 1.0 mph1.6 kmh 29.60 in1002.4 mb 0.01 in0.3 mm 0.00 in0.0 mm 0.09 in2.3 mm
08:15 AM 34.9°F1.6°C 34.1°F1.2°C 97% Calm Calm -- 29.61 in1002.7 mb 0.01 in0.3 mm 0.00 in0.0 mm 0.09 in2.3 mm
08:30 AM 35.0°F1.7°C 34.2°F1.2°C 97% Calm Calm 1.0 mph1.6 kmh 29.61 in1002.7 mb 0.01 in0.3 mm 0.00 in0.0 mm 0.09 in2.3 mm
08:45 AM 35.4°F1.9°C 34.6°F1.4°C 97% 1.0 mph SSW1.6 kmh SSW 2.0 mph3.2 kmh 29.61 in1002.7 mb 0.00 in0.0 mm 0.00 in0.0 mm 0.09 in2.3 mm
09:00 AM 35.8°F2.1°C 35.0°F1.7°C 97% Calm Calm 2.0 mph3.2 kmh 29.62 in1003.0 mb 0.00 in0.0 mm 0.00 in0.0 mm 0.09 in2.3 mm
09:15 AM 36.2°F2.3°C 35.4°F1.9°C 97% Calm Calm 2.0 mph3.2 kmh 29.62 in1003.0 mb 0.00 in0.0 mm 0.00 in0.0 mm 0.09 in2.3 mm
09:30 AM 36.6°F2.6°C 36.1°F2.3°C 98% Calm Calm 2.0 mph3.2 kmh 29.62 in1003.0 mb 0.00 in0.0 mm 0.00 in0.0 mm 0.09 in2.3 mm
09:45 AM 36.6°F2.6°C 35.8°F2.1°C 97% Calm Calm -- 29.62 in1003.0 mb 0.00 in0.0 mm 0.00 in0.0 mm 0.09 in2.3 mm
10:00 AM 36.8°F2.7°C 36.0°F2.2°C 97% Calm Calm -- 29.63 in1003.4 mb 0.00 in0.0 mm 0.00 in0.0 mm 0.09 in2.3 mm
10:15 AM 37.0°F2.8°C 36.5°F2.5°C 98% Calm Calm 2.0 mph3.2 kmh 29.64 in1003.7 mb 0.00 in0.0 mm 0.00 in0.0 mm 0.09 in2.3 mm
10:30 AM 37.4°F3.0°C 36.6°F2.6°C 97% Calm Calm 3.0 mph4.8 kmh 29.64 in1003.7 mb 0.00 in0.0 mm 0.00 in0.0 mm 0.09 in2.3 mm
10:45 AM 37.6°F3.1°C 37.1°F2.8°C 98% Calm Calm -- 29.65 in1004.1 mb 0.00 in0.0 mm 0.00 in0.0 mm 0.09 in2.3 mm
11:00 AM 37.9°F3.3°C 37.1°F2.8°C 97% 1.0 mph SSW1.6 kmh SSW 2.0 mph3.2 kmh 29.65 in1004.1 mb 0.00 in0.0 mm 0.00 in0.0 mm 0.09 in2.3 mm
11:15 AM 38.0°F3.3°C 37.2°F2.9°C 97% Calm Calm 2.0 mph3.2 kmh 29.66 in1004.4 mb 0.00 in0.0 mm 0.00 in0.0 mm 0.09 in2.3 mm
11:30 AM 38.2°F3.4°C 37.7°F3.2°C 98% Calm Calm 2.0 mph3.2 kmh 29.65 in1004.1 mb 0.00 in0.0 mm 0.00 in0.0 mm 0.09 in2.3 mm
11:45 AM 38.3°F3.5°C 37.8°F3.2°C 98% Calm Calm -- 29.65 in1004.1 mb 0.00 in0.0 mm 0.00 in0.0 mm 0.09 in2.3 mm
12:00 PM 38.4°F3.6°C 37.6°F3.1°C 97% Calm Calm 1.0 mph1.6 kmh 29.65 in1004.1 mb 0.00 in0.0 mm 0.00 in0.0 mm 0.09 in2.3 mm
12:15 PM 38.5°F3.6°C 37.7°F3.2°C 97% Calm Calm -- 29.65 in1004.1 mb 0.00 in0.0 mm 0.00 in0.0 mm 0.09 in2.3 mm
12:30 PM 38.6°F3.7°C 37.8°F3.2°C 97% Calm Calm 1.0 mph1.6 kmh 29.64 in1003.7 mb 0.00 in0.0 mm 0.00 in0.0 mm 0.09 in2.3 mm
12:45 PM 38.6°F3.7°C 37.8°F3.2°C 97% Calm Calm -- 29.63 in1003.4 mb 0.00 in0.0 mm 0.00 in0.0 mm 0.09 in2.3 mm
01:00 PM 38.7°F3.7°C 38.2°F3.4°C 98% Calm Calm 2.0 mph3.2 kmh 29.64 in1003.7 mb 0.00 in0.0 mm 0.00 in0.0 mm 0.09 in2.3 mm
01:15 PM 38.8°F3.8°C 38.3°F3.5°C 98% Calm Calm 1.0 mph1.6 kmh 29.63 in1003.4 mb 0.00 in0.0 mm 0.00 in0.0 mm 0.09 in2.3 mm
01:30 PM 38.7°F3.7°C 38.2°F3.4°C 98% Calm Calm 3.0 mph4.8 kmh 29.62 in1003.0 mb 0.00 in0.0 mm 0.00 in0.0 mm 0.09 in2.3 mm
01:45 PM 38.7°F3.7°C 37.9°F3.3°C 97% Calm Calm 2.0 mph3.2 kmh 29.62 in1003.0 mb 0.00 in0.0 mm 0.00 in0.0 mm 0.09 in2.3 mm
02:00 PM 38.7°F3.7°C 38.2°F3.4°C 98% Calm Calm 2.0 mph3.2 kmh 29.62 in1003.0 mb 0.00 in0.0 mm 0.00 in0.0 mm 0.09 in2.3 mm
02:15 PM 38.7°F3.7°C 37.9°F3.3°C 97% Calm Calm 2.0 mph3.2 kmh 29.62 in1003.0 mb 0.00 in0.0 mm 0.00 in0.0 mm 0.09 in2.3 mm
02:30 PM 38.6°F3.7°C 37.8°F3.2°C 97% Calm Calm 2.0 mph3.2 kmh 29.61 in1002.7 mb 0.00 in0.0 mm 0.00 in0.0 mm 0.09 in2.3 mm
02:45 PM 38.7°F3.7°C 38.2°F3.4°C 98% Calm Calm 1.0 mph1.6 kmh 29.62 in1003.0 mb 0.00 in0.0 mm 0.00 in0.0 mm 0.09 in2.3 mm
03:00 PM 38.6°F3.7°C 37.8°F3.2°C 97% Calm Calm 1.0 mph1.6 kmh 29.62 in1003.0 mb 0.00 in0.0 mm 0.00 in0.0 mm 0.09 in2.3 mm
03:15 PM 38.5°F3.6°C 37.7°F3.2°C 97% Calm Calm 3.0 mph4.8 kmh 29.62 in1003.0 mb 0.00 in0.0 mm 0.00 in0.0 mm 0.09 in2.3 mm
03:30 PM 38.4°F3.6°C 37.6°F3.1°C 97% Calm Calm 3.0 mph4.8 kmh 29.62 in1003.0 mb 0.00 in0.0 mm 0.00 in0.0 mm 0.09 in2.3 mm
03:45 PM 38.3°F3.5°C 37.5°F3.1°C 97% Calm Calm 1.0 mph1.6 kmh 29.62 in1003.0 mb 0.00 in0.0 mm 0.00 in0.0 mm 0.09 in2.3 mm
04:00 PM 38.2°F3.4°C 37.4°F3.0°C 97% Calm Calm 1.0 mph1.6 kmh 29.61 in1002.7 mb 0.00 in0.0 mm 0.00 in0.0 mm 0.09 in2.3 mm
04:15 PM 38.2°F3.4°C 37.4°F3.0°C 97% Calm Calm -- 29.61 in1002.7 mb 0.00 in0.0 mm 0.00 in0.0 mm 0.09 in2.3 mm
04:30 PM 38.0°F3.3°C 37.2°F2.9°C 97% Calm Calm -- 29.62 in1003.0 mb 0.00 in0.0 mm 0.00 in0.0 mm 0.09 in2.3 mm
04:45 PM 37.7°F3.2°C 36.9°F2.7°C 97% Calm Calm 1.0 mph1.6 kmh 29.62 in1003.0 mb 0.00 in0.0 mm 0.00 in0.0 mm 0.09 in2.3 mm
05:00 PM 37.4°F3.0°C 36.6°F2.6°C 97% Calm Calm 1.0 mph1.6 kmh 29.61 in1002.7 mb 0.00 in0.0 mm 0.00 in0.0 mm 0.09 in2.3 mm
05:15 PM 37.1°F2.8°C 36.3°F2.4°C 97% Calm Calm -- 29.62 in1003.0 mb 0.00 in0.0 mm 0.00 in0.0 mm 0.09 in2.3 mm
05:30 PM 36.4°F2.4°C 35.6°F2.0°C 97% Calm Calm 1.0 mph1.6 kmh 29.62 in1003.0 mb 0.00 in0.0 mm 0.00 in0.0 mm 0.09 in2.3 mm
05:45 PM 36.0°F2.2°C 35.2°F1.8°C 97% Calm Calm -- 29.62 in1003.0 mb 0.00 in0.0 mm 0.00 in0.0 mm 0.09 in2.3 mm
06:00 PM 35.6°F2.0°C 34.8°F1.6°C 97% 1.0 mph SSW1.6 kmh SSW 2.0 mph3.2 kmh 29.63 in1003.4 mb 0.00 in0.0 mm 0.00 in0.0 mm 0.09 in2.3 mm
06:15 PM 35.4°F1.9°C 34.6°F1.4°C 97% Calm Calm 2.0 mph3.2 kmh 29.62 in1003.0 mb 0.00 in0.0 mm 0.00 in0.0 mm 0.09 in2.3 mm
06:30 PM 35.2°F1.8°C 34.4°F1.3°C 97% Calm Calm 3.0 mph4.8 kmh 29.62 in1003.0 mb 0.00 in0.0 mm 0.00 in0.0 mm 0.09 in2.3 mm
06:45 PM 35.1°F1.7°C 34.3°F1.3°C 97% Calm Calm 1.0 mph1.6 kmh 29.63 in1003.4 mb 0.00 in0.0 mm 0.00 in0.0 mm 0.09 in2.3 mm
07:00 PM 34.9°F1.6°C 34.1°F1.2°C 97% Calm Calm 1.0 mph1.6 kmh 29.64 in1003.7 mb 0.00 in0.0 mm 0.00 in0.0 mm 0.09 in2.3 mm
07:15 PM 34.7°F1.5°C 33.9°F1.1°C 97% Calm Calm -- 29.62 in1003.0 mb 0.00 in0.0 mm 0.00 in0.0 mm 0.09 in2.3 mm
07:30 PM 34.5°F1.4°C 33.7°F0.9°C 97% Calm Calm -- 29.62 in1003.0 mb 0.00 in0.0 mm 0.00 in0.0 mm 0.09 in2.3 mm
07:45 PM 34.4°F1.3°C 33.6°F0.9°C 97% Calm Calm 1.0 mph1.6 kmh 29.63 in1003.4 mb 0.00 in0.0 mm 0.00 in0.0 mm 0.09 in2.3 mm
08:00 PM 34.3°F1.3°C 33.5°F0.8°C 97% Calm Calm 1.0 mph1.6 kmh 29.65 in1004.1 mb 0.00 in0.0 mm 0.00 in0.0 mm 0.09 in2.3 mm
08:15 PM 34.2°F1.2°C 33.4°F0.8°C 97% Calm Calm -- 29.64 in1003.7 mb 0.00 in0.0 mm 0.00 in0.0 mm 0.09 in2.3 mm
08:30 PM 34.1°F1.2°C 33.3°F0.7°C 97% Calm Calm -- 29.63 in1003.4 mb 0.00 in0.0 mm 0.00 in0.0 mm 0.09 in2.3 mm
08:45 PM 34.0°F1.1°C 33.2°F0.7°C 97% Calm Calm 2.0 mph3.2 kmh 29.62 in1003.0 mb 0.00 in0.0 mm 0.00 in0.0 mm 0.09 in2.3 mm
09:00 PM 34.0°F1.1°C 33.2°F0.7°C 97% Calm Calm 2.0 mph3.2 kmh 29.62 in1003.0 mb 0.00 in0.0 mm 0.00 in0.0 mm 0.09 in2.3 mm
09:15 PM 33.9°F1.1°C 33.1°F0.6°C 97% Calm Calm 1.0 mph1.6 kmh 29.62 in1003.0 mb 0.00 in0.0 mm 0.00 in0.0 mm 0.09 in2.3 mm
09:30 PM 33.9°F1.1°C 33.1°F0.6°C 97% Calm Calm 1.0 mph1.6 kmh 29.64 in1003.7 mb 0.00 in0.0 mm 0.00 in0.0 mm 0.09 in2.3 mm
09:45 PM 33.9°F1.1°C 33.1°F0.6°C 97% Calm Calm 2.0 mph3.2 kmh 29.62 in1003.0 mb 0.00 in0.0 mm 0.00 in0.0 mm 0.09 in2.3 mm
10:00 PM 33.9°F1.1°C 33.1°F0.6°C 97% Calm Calm 3.0 mph4.8 kmh 29.61 in1002.7 mb 0.00 in0.0 mm 0.00 in0.0 mm 0.09 in2.3 mm
10:15 PM 34.2°F1.2°C 33.4°F0.8°C 97% Calm Calm 6.0 mph9.7 kmh 29.60 in1002.4 mb 0.00 in0.0 mm 0.00 in0.0 mm 0.09 in2.3 mm
10:30 PM 34.3°F1.3°C 33.5°F0.8°C 97% 1.0 mph ENE1.6 kmh ENE 6.0 mph9.7 kmh 29.60 in1002.4 mb 0.00 in0.0 mm 0.00 in0.0 mm 0.09 in2.3 mm
10:45 PM 34.4°F1.3°C 33.6°F0.9°C 97% Calm Calm 2.0 mph3.2 kmh 29.60 in1002.4 mb 0.00 in0.0 mm 0.00 in0.0 mm 0.09 in2.3 mm
11:00 PM 34.4°F1.3°C 33.6°F0.9°C 97% Calm Calm 3.0 mph4.8 kmh 29.60 in1002.4 mb 0.00 in0.0 mm 0.00 in0.0 mm 0.09 in2.3 mm
11:15 PM 34.4°F1.3°C 33.6°F0.9°C 97% Calm Calm 2.0 mph3.2 kmh 29.59 in1002.0 mb 0.01 in0.3 mm 0.04 in1.0 mm 0.10 in2.5 mm
11:30 PM 34.4°F1.3°C 33.6°F0.9°C 97% Calm Calm 3.0 mph4.8 kmh 29.59 in1002.0 mb 0.01 in0.3 mm 0.00 in0.0 mm 0.10 in2.5 mm
11:45 PM 34.4°F1.3°C 33.6°F0.9°C 97% Calm Calm 2.0 mph3.2 kmh 29.57 in1001.4 mb 0.01 in0.3 mm 0.00 in0.0 mm 0.10 in2.5 mm